Time;durP1;ratioP1;P1;durP2;ratioP2;P2;SDS_P1;SDS_P2;PMS_P1;PMS_P2;Temp;Humidity;BMP_temperature;BMP_pressure;BME280_temperature;BME280_humidity;BME280_pressure;Samples;Min_cycle;Max_cycle;Signal;HPM_P1;HPM_P2
2023/12/14 00:02:29;;;;;;;;;;;;;;;6.49;80.62;98156.44;4467730;32;33497;-95
2023/12/14 00:05:05;;;;;;;;;;;;;;;6.33;81.21;98153.34;4467261;32;32819;-95
2023/12/14 00:07:34;;;;;;;;;;;;;;;6.27;81.17;98161.19;4478952;32;34252;-94
2023/12/14 00:10:10;;;;;;;;;;;;;;;6.05;81.95;98155.63;4467498;32;34754;-94
2023/12/14 00:12:48;;;;;;;;;;;;;;;5.64;83.89;98154.63;4466028;32;34505;-93
2023/12/14 00:15:24;;;;;;;;;;;;;;;5.84;83.31;98159.41;4452649;32;31386;-95
2023/12/14 00:18:09;;;;;;;;;;;;;;;5.49;84.98;98158.34;4473792;32;34421;-94
2023/12/14 00:23:46;;;;;;;;;;;;;;;5.69;84.86;98175.97;4473670;32;34560;-93
2023/12/14 00:26:25;;;;;;;;;;;;;;;6.05;82.81;98180.53;4461004;32;32412;-92
2023/12/14 00:28:56;;;;;;;;;;;;;;;6.13;82.40;98182.03;4452125;32;31615;-93
2023/12/14 00:31:29;;;;;;;;;;;;;;;6.18;81.88;98192.25;4456919;32;33763;-92
2023/12/14 00:34:02;;;;;;;;;;;;;;;6.12;82.62;98202.69;4463619;32;34873;-92
2023/12/14 00:36:33;;;;;;;;;;;;;;;6.28;81.75;98209.25;4471682;32;33138;-91
2023/12/14 00:39:07;;;;;;;;;;;;;;;6.18;81.58;98215.44;4463590;32;34124;-93
2023/12/14 00:41:35;;;;;;;;;;;;;;;6.12;82.29;98225.87;4469113;32;33859;-93
2023/12/14 00:44:07;;;;;;;;;;;;;;;6.05;83.07;98237.16;4465841;32;36024;-92
2023/12/14 00:46:38;;;;;;;;;;;;;;;6.03;82.60;98242.31;4469985;32;33948;-94
2023/12/14 00:49:13;;;;;;;;;;;;;;;6.12;82.32;98261.91;4477704;32;34676;-94
2023/12/14 00:51:46;;;;;;;;;;;;;;;6.09;83.12;98267.09;4462671;32;34413;-93
2023/12/14 00:54:15;;;;;;;;;;;;;;;6.16;82.56;98268.69;4463761;32;33661;-93
2023/12/14 00:56:47;;;;;;;;;;;;;;;6.18;82.13;98285.81;4465753;32;32738;-94
2023/12/14 00:59:15;;;;;;;;;;;;;;;6.23;82.41;98293.44;4472248;32;34079;-92
2023/12/14 01:01:45;;;;;;;;;;;;;;;6.06;82.78;98296.31;4471720;32;34087;-92
2023/12/14 01:04:13;;;;;;;;;;;;;;;6.12;82.64;98300.53;4470934;32;33716;-92
2023/12/14 01:06:42;;;;;;;;;;;;;;;6.02;83.03;98298.97;4476686;32;32561;-93
2023/12/14 01:09:19;;;;;;;;;;;;;;;5.92;83.44;98287.94;4461843;32;31303;-93
2023/12/14 01:11:48;;;;;;;;;;;;;;;6.03;82.94;98275.78;4465660;32;34222;-92
2023/12/14 01:14:17;;;;;;;;;;;;;;;5.76;84.28;98266.78;4467046;32;33407;-92
2023/12/14 01:16:47;;;;;;;;;;;;;;;5.64;85.18;98264.41;4465171;32;33363;-93
2023/12/14 01:19:22;;;;;;;;;;;;;;;5.48;86.58;98248.37;4458984;32;33293;-93
2023/12/14 01:21:55;;;;;;;;;;;;;;;5.33;87.59;98236.59;4479664;32;33729;-91
2023/12/14 01:24:30;;;;;;;;;;;;;;;5.20;88.74;98232.53;4465092;32;32482;-93
2023/12/14 01:27:02;;;;;;;;;;;;;;;5.29;nan;98237.50;4474195;32;30605;-93
2023/12/14 01:29:33;;;;;;;;;;;;;;;5.42;88.51;98228.75;4469678;32;34422;-93
2023/12/14 01:32:05;;;;;;;;;;;;;;;5.65;87.47;98235.22;4470740;32;34284;-93
2023/12/14 01:34:34;;;;;;;;;;;;;;;5.86;86.32;98229.72;4459038;32;32696;-93
2023/12/14 01:37:03;;;;;;;;;;;;;;;5.76;85.97;98229.03;4473007;32;32815;-93
2023/12/14 01:39:33;;;;;;;;;;;;;;;5.81;86.31;98234.09;4457028;32;32712;-92
2023/12/14 01:42:05;;;;;;;;;;;;;;;6.00;85.54;98228.66;4469654;32;34741;-93
2023/12/14 01:44:36;;;;;;;;;;;;;;;6.07;84.82;98219.97;4472979;32;34224;-93
2023/12/14 01:47:05;;;;;;;;;;;;;;;5.88;84.61;98216.84;4471081;32;32440;-93
2023/12/14 01:49:33;;;;;;;;;;;;;;;6.14;84.66;98208.66;4482080;32;33613;-93
2023/12/14 01:52:04;;;;;;;;;;;;;;;6.36;83.44;98212.50;4469701;32;33752;-92
2023/12/14 01:54:34;;;;;;;;;;;;;;;6.45;82.62;98220.91;4464489;32;33805;-94
2023/12/14 01:57:10;;;;;;;;;;;;;;;6.33;82.01;98219.44;4472697;32;32916;-93
2023/12/14 01:59:44;;;;;;;;;;;;;;;6.40;82.22;98228.75;4468740;32;34376;-94
2023/12/14 02:02:16;;;;;;;;;;;;;;;6.59;81.15;98239.53;4466806;32;34059;-93
2023/12/14 02:04:47;;;;;;;;;;;;;;;6.65;80.40;98247.16;4448927;32;34006;-94
2023/12/14 02:07:19;;;;;;;;;;;;;;;6.67;80.55;98259.97;4456558;32;33292;-92
2023/12/14 02:09:58;;;;;;;;;;;;;;;6.56;81.25;98260.22;4482527;32;34080;-94
2023/12/14 02:12:30;;;;;;;;;;;;;;;6.53;81.34;98255.97;4451945;32;34417;-93
2023/12/14 02:14:59;;;;;;;;;;;;;;;6.63;80.63;98251.47;4471308;32;35268;-92
2023/12/14 02:17:29;;;;;;;;;;;;;;;6.48;81.66;98256.94;4464155;32;31430;-93
2023/12/14 02:20:03;;;;;;;;;;;;;;;6.35;82.52;98251.16;4463690;32;33331;-93
2023/12/14 02:23:05;;;;;;;;;;;;;;;6.04;84.59;98254.34;4455844;32;33441;-93
2023/12/14 02:26:01;;;;;;;;;;;;;;;6.04;85.01;98245.72;4463745;32;34144;-94
2023/12/14 03:38:25;;;;;;;;;;;;;;;6.83;81.17;98336.12;5216957;26;3893639;-94
2023/12/14 03:41:27;;;;;;;;;;;;;;;6.80;80.77;98339.59;5363797;26;35007;-95
2023/12/14 03:44:06;;;;;;;;;;;;;;;6.78;81.03;98351.66;5368717;26;34384;-93
2023/12/14 03:46:42;;;;;;;;;;;;;;;6.73;81.48;98353.50;5390830;26;34419;-94
2023/12/14 03:49:12;;;;;;;;;;;;;;;6.61;82.11;98358.88;5392579;26;33481;-94
2023/12/14 03:51:48;;;;;;;;;;;;;;;6.74;82.01;98359.47;5361549;26;34657;-93
2023/12/14 03:54:19;;;;;;;;;;;;;;;6.83;81.54;98359.31;5342203;26;33046;-94
2023/12/14 03:56:57;;;;;;;;;;;;;;;6.49;83.34;98359.94;5344557;26;34692;-94
2023/12/14 03:59:32;;;;;;;;;;;;;;;6.53;82.33;98353.88;5369696;26;33056;-94
2023/12/14 04:02:01;;;;;;;;;;;;;;;6.72;81.54;98354.37;5368998;26;34032;-93
2023/12/14 04:04:34;;;;;;;;;;;;;;;6.73;81.44;98360.38;5360910;26;35279;-93
2023/12/14 04:07:02;;;;;;;;;;;;;;;6.60;81.81;98360.59;5339374;26;33664;-94
2023/12/14 04:09:35;;;;;;;;;;;;;;;6.38;83.23;98361.87;5341831;26;33522;-94
2023/12/14 04:12:04;;;;;;;;;;;;;;;6.43;83.10;98366.94;5343018;26;33404;-92
2023/12/14 04:14:36;;;;;;;;;;;;;;;6.74;81.40;98365.50;5358851;26;34225;-93
2023/12/14 04:17:04;;;;;;;;;;;;;;;6.56;82.35;98371.00;5359112;26;34169;-95
2023/12/14 04:19:34;;;;;;;;;;;;;;;6.41;83.26;98372.97;5341270;26;33675;-93
2023/12/14 04:22:03;;;;;;;;;;;;;;;6.69;81.16;98374.19;5360256;26;34137;-95
2023/12/14 04:24:39;;;;;;;;;;;;;;;6.51;82.86;98388.28;5364918;26;33584;-94
2023/12/14 04:27:07;;;;;;;;;;;;;;;6.69;81.74;98387.06;5358272;26;34015;-93
2023/12/14 04:29:39;;;;;;;;;;;;;;;6.66;82.32;98387.97;5339276;26;34550;-93
2023/12/14 04:32:08;;;;;;;;;;;;;;;6.72;80.91;98379.31;5337965;26;32908;-93
2023/12/14 04:34:37;;;;;;;;;;;;;;;6.64;81.37;98379.44;5325605;26;32685;-92
2023/12/14 04:37:09;;;;;;;;;;;;;;;6.52;82.03;98369.34;5337522;26;32767;-93
2023/12/14 04:39:48;;;;;;;;;;;;;;;6.18;84.31;98375.06;5358608;26;33146;-92
2023/12/14 04:42:16;;;;;;;;;;;;;;;6.26;84.06;98375.81;5357580;26;33553;-92
2023/12/14 04:44:53;;;;;;;;;;;;;;;6.09;84.91;98383.81;5359396;26;33600;-92
2023/12/14 04:47:28;;;;;;;;;;;;;;;5.96;85.87;98385.72;5364040;26;34489;-93
2023/12/14 04:49:57;;;;;;;;;;;;;;;5.89;86.16;98391.81;5343934;26;32464;-95
2023/12/14 04:52:29;;;;;;;;;;;;;;;6.24;85.64;98397.31;5338243;26;32925;-92
2023/12/14 04:54:59;;;;;;;;;;;;;;;6.36;85.11;98408.28;5358702;26;33706;-91
2023/12/14 04:57:30;;;;;;;;;;;;;;;6.35;84.80;98400.56;5363806;26;33813;-94
2023/12/14 04:59:58;;;;;;;;;;;;;;;6.46;83.52;98398.66;5365231;26;34326;-94
2023/12/14 05:02:34;;;;;;;;;;;;;;;6.29;84.48;98405.81;5359001;26;34895;-93
2023/12/14 05:05:04;;;;;;;;;;;;;;;6.27;84.59;98413.56;5338897;26;33335;-94
2023/12/14 05:07:40;;;;;;;;;;;;;;;6.18;85.11;98413.72;5338982;26;32348;-92
2023/12/14 05:10:19;;;;;;;;;;;;;;;6.15;85.30;98396.59;5344165;26;31625;-93
2023/12/14 05:12:47;;;;;;;;;;;;;;;5.92;86.26;98401.19;5364383;26;33625;-93
2023/12/14 05:15:21;;;;;;;;;;;;;;;6.06;86.47;98408.75;5337964;26;33107;-93
2023/12/14 05:17:56;;;;;;;;;;;;;;;6.08;85.94;98407.84;5358720;26;33777;-94
2023/12/14 05:20:26;;;;;;;;;;;;;;;6.05;86.13;98407.91;5319877;26;32045;-93
2023/12/14 05:22:57;;;;;;;;;;;;;;;5.91;86.95;98418.38;5343368;26;33183;-93
2023/12/14 05:25:27;;;;;;;;;;;;;;;5.90;87.47;98414.13;5358726;26;34498;-92
2023/12/14 05:27:56;;;;;;;;;;;;;;;5.96;87.00;98421.75;5358803;26;33915;-92
2023/12/14 05:30:28;;;;;;;;;;;;;;;5.98;86.91;98429.47;5358571;26;33651;-93
2023/12/14 05:33:04;;;;;;;;;;;;;;;6.03;86.25;98431.97;5358548;26;33520;-93
2023/12/14 05:35:33;;;;;;;;;;;;;;;5.75;87.56;98440.06;5364337;26;35282;-92
2023/12/14 05:38:05;;;;;;;;;;;;;;;5.86;87.33;98443.34;5338262;26;33734;-92
2023/12/14 05:40:35;;;;;;;;;;;;;;;5.89;87.73;98448.44;5362693;26;32954;-93
2023/12/14 05:43:05;;;;;;;;;;;;;;;5.97;87.25;98443.22;5358355;26;35356;-93
2023/12/14 05:45:33;;;;;;;;;;;;;;;5.96;87.19;98457.78;5363620;26;34734;-93
2023/12/14 05:48:07;;;;;;;;;;;;;;;5.60;88.24;98453.13;5361268;26;33635;-93
2023/12/14 05:50:36;;;;;;;;;;;;;;;5.80;87.56;98456.31;5360269;26;32586;-93
2023/12/14 05:53:08;;;;;;;;;;;;;;;5.82;87.20;98457.09;5357128;26;33742;-93
2023/12/14 05:55:39;;;;;;;;;;;;;;;5.69;88.01;98456.44;5337650;26;33338;-93
2023/12/14 05:58:08;;;;;;;;;;;;;;;5.85;87.72;98459.66;5364441;26;33864;-93
2023/12/14 06:00:37;;;;;;;;;;;;;;;6.02;86.61;98466.31;5360828;26;33588;-93
2023/12/14 06:03:06;;;;;;;;;;;;;;;6.29;85.40;98476.22;5358526;26;33793;-93
2023/12/14 06:05:40;;;;;;;;;;;;;;;6.17;84.86;98478.97;5358049;26;34956;-93
2023/12/14 06:08:12;;;;;;;;;;;;;;;6.19;84.64;98472.91;5361657;26;34041;-93
2023/12/14 06:10:42;;;;;;;;;;;;;;;6.11;85.30;98474.78;5364003;26;32810;-93
2023/12/14 06:13:20;;;;;;;;;;;;;;;6.18;84.90;98478.09;5358740;26;35830;-93
2023/12/14 06:15:51;;;;;;;;;;;;;;;6.07;85.17;98480.84;5357997;26;35478;-93
2023/12/14 06:18:22;;;;;;;;;;;;;;;6.04;85.62;98478.31;5359367;26;34012;-92
2023/12/14 06:21:00;;;;;;;;;;;;;;;5.95;86.02;98478.44;5363702;26;32599;-92
2023/12/14 06:23:29;;;;;;;;;;;;;;;6.14;85.25;98484.19;5362520;26;34143;-92
2023/12/14 06:25:59;;;;;;;;;;;;;;;6.14;85.14;98489.31;5358351;26;34232;-92
2023/12/14 06:28:27;;;;;;;;;;;;;;;6.14;85.01;98485.03;5364207;26;33692;-93
2023/12/14 06:31:02;;;;;;;;;;;;;;;6.12;85.27;98497.06;5358119;26;34242;-93
2023/12/14 06:33:32;;;;;;;;;;;;;;;6.08;85.92;98497.97;5363709;26;34319;-93
2023/12/14 06:36:03;;;;;;;;;;;;;;;6.27;84.48;98511.44;5337906;26;34987;-92
2023/12/14 06:38:32;;;;;;;;;;;;;;;6.35;84.56;98511.31;5358795;26;34484;-93
2023/12/14 07:57:33;;;;;;;;;;;;;;;7.02;80.77;98625.41;5388550;26;20383;-93
2023/12/14 08:00:08;;;;;;;;;;;;;;;7.28;79.08;98634.44;5387005;26;33307;-93
2023/12/14 08:03:05;;;;;;;;;;;;;;;7.05;80.09;98630.50;5382282;26;34300;-94
2023/12/14 08:06:36;;;;;;;;;;;;;;;6.98;80.23;98632.34;5383565;26;35271;-93
2023/12/14 08:09:58;;;;;;;;;;;;;;;7.20;79.56;98638.00;5384182;26;34136;-93
2023/12/14 08:13:01;;;;;;;;;;;;;;;7.40;78.31;98647.13;5386887;26;34454;-93
2023/12/14 08:15:50;;;;;;;;;;;;;;;7.36;78.68;98653.22;5383177;26;34293;-93
2023/12/14 08:22:31;;;;;;;;;;;;;;;6.95;80.06;98665.03;5380846;26;34170;-93
2023/12/14 08:28:19;;;;;;;;;;;;;;;6.95;79.94;98670.19;5384047;26;34995;-92
2023/12/14 08:30:57;;;;;;;;;;;;;;;6.86;80.56;98678.06;5384236;26;35139;-92
2023/12/14 08:33:36;;;;;;;;;;;;;;;6.83;80.99;98671.22;5382959;26;34389;-92
2023/12/14 08:36:14;;;;;;;;;;;;;;;6.47;82.33;98682.87;5381738;26;35392;-92
2023/12/14 08:38:54;;;;;;;;;;;;;;;6.55;82.35;98679.34;5388698;26;35077;-92
2023/12/14 08:41:25;;;;;;;;;;;;;;;6.37;83.64;98685.56;5382912;26;34490;-93
2023/12/14 08:43:58;;;;;;;;;;;;;;;6.31;84.60;98679.69;5382695;26;32146;-93
2023/12/14 08:50:08;;;;;;;;;;;;;;;6.29;85.12;98684.00;5249372;27;35706;-93
2023/12/14 08:52:50;;;;;;;;;;;;;;;6.52;84.20;98681.09;5226431;27;33475;-93
2023/12/14 08:58:46;;;;;;;;;;;;;;;6.68;83.49;98697.22;5203500;27;34585;-92
2023/12/14 09:01:24;;;;;;;;;;;;;;;6.72;82.91;98693.75;5207695;27;35466;-91
2023/12/14 09:03:56;;;;;;;;;;;;;;;6.65;83.46;98702.44;5202204;27;34224;-92
2023/12/14 09:06:45;;;;;;;;;;;;;;;6.73;83.20;98718.63;5184798;27;32959;-92
2023/12/14 09:09:25;;;;;;;;;;;;;;;6.78;82.77;98716.84;5203094;27;33826;-93
2023/12/14 09:25:28;;;;;;;;;;;;;;;7.93;77.84;98724.53;4443713;31;803813;-90
2023/12/14 09:28:00;;;;;;;;;;;;;;;7.93;77.84;98724.53;4488525;31;34121;-90
2023/12/14 09:30:29;;;;;;;;;;;;;;;7.35;81.00;98731.50;4500620;31;34068;-90
2023/12/14 09:33:02;;;;;;;;;;;;;;;7.55;79.68;98737.19;4506388;31;35196;-90
2023/12/14 09:35:35;;;;;;;;;;;;;;;7.23;80.41;98730.81;4488354;31;33653;-89
2023/12/14 09:38:29;;;;;;;;;;;;;;;7.33;80.35;98735.84;4505774;31;33265;-90
2023/12/14 09:41:30;;;;;;;;;;;;;;;7.18;80.97;98736.94;4507058;31;34253;-91
2023/12/14 09:44:38;;;;;;;;;;;;;;;7.09;81.52;98743.06;4484905;31;35379;-90
2023/12/14 09:47:42;;;;;;;;;;;;;;;7.00;81.89;98741.44;4481868;31;34076;-90
2023/12/14 09:50:14;;;;;;;;;;;;;;;7.19;81.06;98734.31;4510866;31;32819;-90
2023/12/14 09:52:48;;;;;;;;;;;;;;;7.12;81.56;98750.75;4491031;31;35264;-90
2023/12/14 09:55:36;;;;;;;;;;;;;;;6.98;82.22;98747.50;4491258;31;35346;-90
2023/12/14 10:02:18;;;;;;;;;;;;;;;7.14;81.63;98748.16;4468580;31;35963;-90
2023/12/14 10:05:09;;;;;;;;;;;;;;;6.93;82.33;98751.87;4505364;31;35953;-91
2023/12/14 10:14:06;;;;;;;;;;;;;;;7.01;81.91;98773.28;4474188;31;33705;-93
2023/12/14 10:17:00;;;;;;;;;;;;;;;7.10;82.44;98770.53;4496776;31;35034;-92
2023/12/14 10:19:35;;;;;;;;;;;;;;;7.16;81.74;98773.06;4484493;31;35343;-91
2023/12/14 10:22:09;;;;;;;;;;;;;;;7.34;80.95;98782.25;4509141;31;35730;-90
2023/12/14 10:24:48;;;;;;;;;;;;;;;7.32;80.51;98781.44;4484949;31;33674;-90
2023/12/14 10:27:33;;;;;;;;;;;;;;;7.60;79.73;98776.69;4487836;31;34178;-91
2023/12/14 10:30:15;;;;;;;;;;;;;;;7.60;79.54;98783.59;4488845;31;34627;-91
2023/12/14 10:32:54;;;;;;;;;;;;;;;7.32;80.31;98789.16;4490029;31;34911;-90
2023/12/14 10:35:48;;;;;;;;;;;;;;;7.37;81.19;98791.66;4488881;31;34366;-91
2023/12/14 10:39:12;;;;;;;;;;;;;;;7.49;79.30;98783.75;4492660;31;34599;-91
2023/12/14 11:56:30;;;;;;;;;;;;;;;7.88;78.43;98831.31;4193325;34;35041;-91
2023/12/14 12:05:49;;;;;;;;;;;;;;;8.05;77.39;98848.28;4243943;33;35143;-92
2023/12/14 12:08:57;;;;;;;;;;;;;;;7.90;78.01;98850.22;4307584;32;34117;-89
2023/12/14 12:11:37;;;;;;;;;;;;;;;7.78;78.49;98849.56;4345408;32;33989;-89
2023/12/14 12:14:09;;;;;;;;;;;;;;;7.68;78.67;98867.78;4353555;32;33537;-91
2023/12/14 12:16:55;;;;;;;;;;;;;;;7.65;79.46;98861.78;4375492;32;34479;-91
2023/12/14 12:19:24;;;;;;;;;;;;;;;7.77;78.90;98866.78;4376962;32;32552;-90
2023/12/14 12:22:01;;;;;;;;;;;;;;;8.08;77.75;98869.75;4397576;32;34299;-90
2023/12/14 12:24:54;;;;;;;;;;;;;;;8.07;76.95;98874.91;4465012;32;33260;-90
2023/12/14 12:28:09;;;;;;;;;;;;;;;7.93;78.38;98882.91;4449078;32;35408;-91
2023/12/14 12:31:00;;;;;;;;;;;;;;;7.93;77.91;98882.06;4450261;32;35317;-90
2023/12/14 12:33:38;;;;;;;;;;;;;;;7.78;77.99;98881.41;4473625;31;33501;-90
2023/12/14 12:36:11;;;;;;;;;;;;;;;7.70;79.05;98894.41;4486965;31;36090;-91
2023/12/14 13:00:19;;;;;;;;;;;;;;;8.13;77.52;98904.09;4372433;32;33634;-93
2023/12/14 13:09:48;;;;;;;;;;;;;;;8.44;76.49;98929.47;4354832;32;35607;-90
2023/12/14 13:32:18;;;;;;;;;;;;;;;8.46;76.02;98947.56;4324695;33;35846;-90
2023/12/14 13:38:13;;;;;;;;;;;;;;;8.82;74.08;98956.41;4362543;32;33962;-89
2023/12/14 13:41:33;;;;;;;;;;;;;;;8.63;75.17;98960.19;4384910;32;36408;-91
2023/12/14 14:09:33;;;;;;;;;;;;;;;9.10;73.95;99023.16;4490086;27;20392;-93
2023/12/14 14:26:24;;;;;;;;;;;;;;;8.84;75.92;99044.31;4256796;33;35192;-92
2023/12/14 14:37:17;;;;;;;;;;;;;;;8.66;77.22;99061.81;4276047;33;33691;-92
2023/12/14 14:51:00;;;;;;;;;;;;;;;8.34;78.09;99073.47;4298450;33;35457;-91
2023/12/14 14:53:48;;;;;;;;;;;;;;;8.17;78.67;99070.28;4281654;33;35004;-93
2023/12/14 16:24:56;;;;;;;;;;;;;;;7.42;82.04;99226.00;4400776;32;35214;-93
2023/12/14 16:27:26;;;;;;;;;;;;;;;7.33;82.70;99224.34;4387310;32;31360;-92
2023/12/14 16:32:38;;;;;;;;;;;;;;;7.37;81.97;99231.19;4385735;32;34469;-93
2023/12/14 16:35:10;;;;;;;;;;;;;;;7.38;82.12;99234.62;4387883;32;33405;-93
2023/12/14 16:37:49;;;;;;;;;;;;;;;7.34;82.52;99241.53;4399869;32;33763;-93
2023/12/14 16:40:37;;;;;;;;;;;;;;;7.57;80.98;99243.94;4375665;32;33029;-95
2023/12/14 16:43:19;;;;;;;;;;;;;;;7.43;81.79;99245.78;4387677;32;35424;-96
2023/12/14 16:45:57;;;;;;;;;;;;;;;7.59;80.98;99251.69;4387432;32;34037;-96
2023/12/14 16:48:33;;;;;;;;;;;;;;;7.52;80.44;99261.19;4390325;32;32278;-93
2023/12/14 16:51:10;;;;;;;;;;;;;;;7.55;80.44;99271.47;4388312;32;35113;-92
2023/12/14 16:53:39;;;;;;;;;;;;;;;7.55;80.44;99265.47;4403315;32;34149;-95
2023/12/14 16:56:12;;;;;;;;;;;;;;;7.50;80.41;99265.50;4383170;32;32453;-92
2023/12/14 16:58:41;;;;;;;;;;;;;;;7.60;79.69;99267.13;4391099;32;34363;-93
2023/12/14 17:01:12;;;;;;;;;;;;;;;7.19;81.75;99278.59;4387232;32;33674;-95
2023/12/14 17:03:42;;;;;;;;;;;;;;;7.27;81.31;99275.97;4403368;32;34280;-96
2023/12/14 17:06:13;;;;;;;;;;;;;;;7.41;80.67;99287.06;4383950;32;32581;-95
2023/12/14 17:08:43;;;;;;;;;;;;;;;7.44;80.66;99286.19;4391642;32;32572;-93
2023/12/14 17:11:20;;;;;;;;;;;;;;;7.44;80.04;99299.09;4391579;32;33984;-93
2023/12/14 17:13:50;;;;;;;;;;;;;;;7.43;79.89;99307.72;4383684;32;34450;-92
2023/12/14 17:16:26;;;;;;;;;;;;;;;7.50;79.70;99308.53;4395402;32;34245;-93
2023/12/14 17:18:59;;;;;;;;;;;;;;;7.33;80.07;99314.66;4387597;32;31794;-94
2023/12/14 17:55:04;;;;;;;;;;;;;;;7.38;78.35;99392.91;4902911;27;20045;-92
2023/12/14 17:57:34;;;;;;;;;;;;;;;7.55;77.29;99397.97;4348243;32;35348;-92
2023/12/14 18:00:07;;;;;;;;;;;;;;;7.55;77.46;99408.28;4380774;32;32731;-93
2023/12/14 18:06:07;;;;;;;;;;;;;;;7.56;77.27;99412.56;4384147;32;36109;-93
2023/12/14 18:08:39;;;;;;;;;;;;;;;7.43;77.80;99418.69;4372310;32;34819;-91
2023/12/14 18:11:39;;;;;;;;;;;;;;;7.17;79.04;99422.22;4383748;32;34186;-92
2023/12/14 18:14:16;;;;;;;;;;;;;;;7.12;78.79;99423.97;4385730;32;33452;-92
2023/12/14 18:16:48;;;;;;;;;;;;;;;7.00;79.29;99427.44;4379484;32;34302;-93
2023/12/14 18:19:29;;;;;;;;;;;;;;;6.98;79.27;99448.94;4368294;32;36210;-91
2023/12/14 18:21:59;;;;;;;;;;;;;;;6.98;79.35;99443.78;4392452;32;34365;-92
2023/12/14 18:27:37;;;;;;;;;;;;;;;7.11;78.99;99460.94;4383196;32;34042;-91
2023/12/14 18:30:10;;;;;;;;;;;;;;;7.01;79.07;99467.00;4386629;32;33536;-92
2023/12/14 18:32:39;;;;;;;;;;;;;;;6.92;79.47;99472.19;4380930;32;33887;-93
2023/12/14 18:35:19;;;;;;;;;;;;;;;7.00;78.93;99476.44;4375146;32;34344;-92
2023/12/14 18:37:51;;;;;;;;;;;;;;;6.98;79.01;99478.19;4392043;32;33187;-92
2023/12/14 18:40:25;;;;;;;;;;;;;;;7.20;77.59;99478.09;4371400;32;35165;-91
2023/12/14 18:43:02;;;;;;;;;;;;;;;7.15;77.38;99477.25;4396336;32;34626;-94
2023/12/14 18:45:36;;;;;;;;;;;;;;;7.10;77.64;99479.84;4387425;32;33412;-91
2023/12/14 18:48:07;;;;;;;;;;;;;;;7.21;77.39;99477.25;4383219;32;33498;-92
2023/12/14 18:50:44;;;;;;;;;;;;;;;7.25;76.98;99485.00;4389544;32;33947;-94
2023/12/14 18:53:18;;;;;;;;;;;;;;;7.11;77.58;99497.06;4383774;32;34189;-92
2023/12/14 18:55:48;;;;;;;;;;;;;;;7.34;76.08;99502.16;4385078;32;33915;-91
2023/12/14 18:58:21;;;;;;;;;;;;;;;7.25;76.33;99504.78;4386759;32;33438;-93
2023/12/14 19:00:51;;;;;;;;;;;;;;;7.32;75.29;99508.19;4371653;32;35161;-92
2023/12/14 19:03:21;;;;;;;;;;;;;;;7.19;75.53;99510.78;4371767;32;33090;-93
2023/12/14 19:05:51;;;;;;;;;;;;;;;7.33;75.12;99517.66;4359845;32;32886;-91
2023/12/14 19:08:22;;;;;;;;;;;;;;;7.39;74.67;99517.62;4378193;32;36021;-92
2023/12/14 19:10:52;;;;;;;;;;;;;;;7.47;73.67;99516.75;4377052;32;34032;-91
2023/12/14 19:13:33;;;;;;;;;;;;;;;7.47;73.66;99534.81;4364635;32;33662;-93
2023/12/14 19:16:07;;;;;;;;;;;;;;;7.32;74.02;99533.97;4370634;32;33638;-93
2023/12/14 19:18:37;;;;;;;;;;;;;;;7.30;74.13;99536.59;4384503;32;33378;-91
2023/12/14 19:21:07;;;;;;;;;;;;;;;7.36;74.52;99538.28;4373722;32;34139;-91
2023/12/14 19:23:38;;;;;;;;;;;;;;;7.32;74.38;99549.47;4378722;32;33297;-92
2023/12/14 19:26:08;;;;;;;;;;;;;;;7.32;74.29;99542.59;4390480;32;33164;-92
2023/12/14 19:28:39;;;;;;;;;;;;;;;7.39;74.47;99549.47;4368830;32;32819;-94
2023/12/14 19:31:10;;;;;;;;;;;;;;;7.25;74.60;99549.50;4378423;32;33560;-91
2023/12/14 19:33:39;;;;;;;;;;;;;;;7.16;75.22;99548.66;4391297;32;33777;-93
2023/12/14 19:36:12;;;;;;;;;;;;;;;7.11;75.36;99547.81;4384388;32;34131;-91
2023/12/14 19:38:43;;;;;;;;;;;;;;;7.15;75.24;99559.81;4376195;32;33122;-94
2023/12/14 19:41:17;;;;;;;;;;;;;;;7.08;75.41;99556.41;4368439;32;34455;-91
2023/12/14 19:43:55;;;;;;;;;;;;;;;7.22;74.38;99561.53;4367319;32;34323;-91
2023/12/14 19:46:26;;;;;;;;;;;;;;;7.01;75.41;99576.19;4373578;32;33016;-91
2023/12/14 19:48:58;;;;;;;;;;;;;;;7.16;74.36;99572.72;4378141;32;33790;-92
2023/12/14 19:51:28;;;;;;;;;;;;;;;7.06;74.66;99571.03;4371856;32;33557;-91
2023/12/14 19:54:08;;;;;;;;;;;;;;;7.07;74.47;99575.31;4379155;32;34358;-93
2023/12/14 19:56:40;;;;;;;;;;;;;;;7.09;74.08;99576.16;4389657;32;34377;-93
2023/12/14 19:59:12;;;;;;;;;;;;;;;7.02;74.42;99584.78;4386214;32;32690;-92
2023/12/14 20:01:49;;;;;;;;;;;;;;;7.12;74.09;99577.88;4391671;32;35157;-94
2023/12/14 20:04:22;;;;;;;;;;;;;;;7.13;74.13;99585.62;4387217;32;33604;-93
2023/12/14 20:06:54;;;;;;;;;;;;;;;7.11;74.20;99592.50;4388066;32;33269;-92
2023/12/14 20:09:28;;;;;;;;;;;;;;;7.14;73.90;99592.50;4350779;32;33172;-92
2023/12/14 20:11:58;;;;;;;;;;;;;;;7.00;74.23;99596.81;4346023;32;32847;-93
2023/12/14 20:15:20;;;;;;;;;;;;;;;7.01;74.15;99598.53;4372061;32;33084;-92
2023/12/14 20:17:58;;;;;;;;;;;;;;;6.94;74.86;99600.25;4363331;32;33491;-92
2023/12/14 20:21:08;;;;;;;;;;;;;;;6.84;75.16;99608.84;4376710;32;33934;-91
2023/12/14 20:23:39;;;;;;;;;;;;;;;6.55;76.35;99620.00;4374172;32;34382;-92
2023/12/14 20:26:16;;;;;;;;;;;;;;;6.80;76.06;99610.56;4376486;32;34276;-93
2023/12/14 20:28:48;;;;;;;;;;;;;;;6.68;76.58;99615.69;4377815;32;33995;-93
2023/12/14 20:31:33;;;;;;;;;;;;;;;6.57;76.47;99620.84;4357134;32;32915;-91
2023/12/14 20:34:05;;;;;;;;;;;;;;;6.84;75.83;99620.03;4388050;32;33828;-92
2023/12/14 20:36:40;;;;;;;;;;;;;;;6.80;75.72;99620.00;4384662;32;33933;-91
2023/12/14 20:39:10;;;;;;;;;;;;;;;6.80;75.53;99623.44;4355913;32;33444;-91
2023/12/14 20:41:42;;;;;;;;;;;;;;;6.84;75.11;99626.91;4376496;32;33347;-92
2023/12/14 20:44:21;;;;;;;;;;;;;;;6.82;74.87;99631.19;4375106;32;33457;-92
2023/12/14 20:47:19;;;;;;;;;;;;;;;6.80;74.70;99632.91;4381263;32;34464;-91
2023/12/14 20:49:47;;;;;;;;;;;;;;;6.96;74.21;99637.22;4383378;32;33245;-92
2023/12/14 20:52:19;;;;;;;;;;;;;;;6.93;73.93;99633.78;4381771;32;32629;-91
2023/12/14 20:54:48;;;;;;;;;;;;;;;6.83;74.71;99644.06;4383893;32;34844;-90
2023/12/14 20:57:21;;;;;;;;;;;;;;;6.66;74.95;99652.66;4378105;32;33799;-91
2023/12/14 20:59:51;;;;;;;;;;;;;;;6.65;76.22;99654.38;4383778;32;33325;-89
2023/12/14 21:02:25;;;;;;;;;;;;;;;6.74;75.63;99656.09;4376287;32;33507;-89
2023/12/14 21:04:55;;;;;;;;;;;;;;;6.72;75.96;99647.53;4379688;32;34174;-90
2023/12/14 21:07:28;;;;;;;;;;;;;;;6.50;77.15;99650.03;4378707;32;34945;-91
2023/12/14 21:09:56;;;;;;;;;;;;;;;6.74;75.90;99656.97;4376079;32;33688;-90
2023/12/14 21:12:32;;;;;;;;;;;;;;;6.72;75.64;99655.25;4371542;32;32564;-92
2023/12/14 21:15:07;;;;;;;;;;;;;;;6.78;75.68;99655.25;4375419;32;34935;-92
2023/12/14 21:17:38;;;;;;;;;;;;;;;6.69;76.46;99666.37;4362963;32;34171;-91
2023/12/14 21:20:08;;;;;;;;;;;;;;;6.73;76.85;99669.84;4374952;32;33496;-92
2023/12/14 21:22:38;;;;;;;;;;;;;;;6.58;77.60;99666.37;4368426;32;33676;-91
2023/12/14 21:25:11;;;;;;;;;;;;;;;6.59;78.10;99669.81;4365622;32;33746;-92
2023/12/14 21:27:57;;;;;;;;;;;;;;;6.54;78.57;99667.22;4380292;32;33847;-94
2023/12/14 21:30:33;;;;;;;;;;;;;;;6.39;79.60;99673.19;4375804;32;34041;-93
2023/12/14 21:33:04;;;;;;;;;;;;;;;6.71;78.10;99677.56;4374784;32;34423;-93
2023/12/14 21:35:35;;;;;;;;;;;;;;;6.87;77.42;99683.63;4381510;32;35639;-91
2023/12/14 21:38:03;;;;;;;;;;;;;;;6.86;77.20;99674.16;4378474;32;33184;-90
2023/12/14 21:40:38;;;;;;;;;;;;;;;6.81;77.21;99686.19;4378271;32;33646;-91
2023/12/14 21:43:06;;;;;;;;;;;;;;;6.82;77.49;99683.63;4376325;32;33141;-91
2023/12/14 21:45:35;;;;;;;;;;;;;;;6.51;79.03;99690.41;4379823;32;33629;-92
2023/12/14 21:48:05;;;;;;;;;;;;;;;6.55;79.25;99699.88;4379755;32;34258;-91
2023/12/14 21:50:41;;;;;;;;;;;;;;;6.76;78.24;99700.78;4373064;32;33138;-93
2023/12/14 21:53:09;;;;;;;;;;;;;;;6.95;76.53;99714.59;4382301;32;33300;-89
2023/12/14 21:55:41;;;;;;;;;;;;;;;6.90;76.85;99709.41;4380017;32;33619;-93
2023/12/14 21:58:09;;;;;;;;;;;;;;;7.17;75.54;99715.47;4378704;32;34503;-90
2023/12/14 22:00:38;;;;;;;;;;;;;;;6.96;76.34;99718.87;4378639;32;34312;-90
2023/12/14 22:03:11;;;;;;;;;;;;;;;7.03;76.44;99721.50;4377370;32;33696;-90
2023/12/14 22:05:41;;;;;;;;;;;;;;;6.66;79.22;99732.56;4376939;32;33665;-91
2023/12/14 22:08:11;;;;;;;;;;;;;;;6.78;79.27;99730.03;4376110;32;33932;-92
2023/12/14 22:10:45;;;;;;;;;;;;;;;6.98;78.46;99730.94;4370624;32;33430;-91
2023/12/14 22:13:16;;;;;;;;;;;;;;;6.99;78.48;99734.37;4380426;32;33535;-90